sensor_id;sensor_type;location;lat;lon;timestamp;temperature;humidity
67194;DHT22;54121;53.508;49.422;2022-10-22T00:00:58;12.50;37.00
67194;DHT22;54121;53.508;49.422;2022-10-22T00:03:25;12.50;36.90
67194;DHT22;54121;53.508;49.422;2022-10-22T00:05:52;12.40;37.30
67194;DHT22;54121;53.508;49.422;2022-10-22T00:08:20;12.40;37.10
67194;DHT22;54121;53.508;49.422;2022-10-22T00:10:47;12.30;37.50
67194;DHT22;54121;53.508;49.422;2022-10-22T00:13:14;12.30;37.00
67194;DHT22;54121;53.508;49.422;2022-10-22T00:15:41;12.10;37.70
67194;DHT22;54121;53.508;49.422;2022-10-22T00:18:08;12.20;37.40
67194;DHT22;54121;53.508;49.422;2022-10-22T00:20:35;12.00;37.60
67194;DHT22;54121;53.508;49.422;2022-10-22T00:23:01;11.90;37.80
67194;DHT22;54121;53.508;49.422;2022-10-22T00:25:28;11.80;37.90
67194;DHT22;54121;53.508;49.422;2022-10-22T00:27:56;11.90;38.70
67194;DHT22;54121;53.508;49.422;2022-10-22T00:30:23;11.90;37.60
67194;DHT22;54121;53.508;49.422;2022-10-22T00:32:50;11.80;37.60
67194;DHT22;54121;53.508;49.422;2022-10-22T00:35:16;11.80;37.80
67194;DHT22;54121;53.508;49.422;2022-10-22T00:37:44;11.80;37.60
67194;DHT22;54121;53.508;49.422;2022-10-22T00:40:11;11.70;38.00
67194;DHT22;54121;53.508;49.422;2022-10-22T00:42:38;11.80;37.80
67194;DHT22;54121;53.508;49.422;2022-10-22T00:48:03;11.50;39.30
67194;DHT22;54121;53.508;49.422;2022-10-22T00:50:42;11.40;38.30
67194;DHT22;54121;53.508;49.422;2022-10-22T00:53:23;11.40;38.30
67194;DHT22;54121;53.508;49.422;2022-10-22T00:55:51;11.30;38.70
67194;DHT22;54121;53.508;49.422;2022-10-22T00:58:22;11.30;38.60
67194;DHT22;54121;53.508;49.422;2022-10-22T01:00:49;11.20;38.60
67194;DHT22;54121;53.508;49.422;2022-10-22T01:03:16;11.30;38.50
67194;DHT22;54121;53.508;49.422;2022-10-22T01:06:03;11.30;38.50
67194;DHT22;54121;53.508;49.422;2022-10-22T01:08:52;11.40;38.30
67194;DHT22;54121;53.508;49.422;2022-10-22T01:17:28;11.10;38.70
67194;DHT22;54121;53.508;49.422;2022-10-22T01:20:55;11.10;38.50
67194;DHT22;54121;53.508;49.422;2022-10-22T01:31:17;10.90;38.80
67194;DHT22;54121;53.508;49.422;2022-10-22T01:33:47;10.80;39.40
67194;DHT22;54121;53.508;49.422;2022-10-22T01:36:15;10.90;39.00
67194;DHT22;54121;53.508;49.422;2022-10-22T01:38:44;11.00;38.80
67194;DHT22;54121;53.508;49.422;2022-10-22T01:41:12;10.90;38.70
67194;DHT22;54121;53.508;49.422;2022-10-22T01:43:39;10.90;39.10
67194;DHT22;54121;53.508;49.422;2022-10-22T01:46:08;10.80;39.00
67194;DHT22;54121;53.508;49.422;2022-10-22T01:49:05;10.70;39.30
67194;DHT22;54121;53.508;49.422;2022-10-22T01:52:02;10.70;39.30
67194;DHT22;54121;53.508;49.422;2022-10-22T01:54:55;10.90;38.30
67194;DHT22;54121;53.508;49.422;2022-10-22T01:57:35;10.70;39.00
67194;DHT22;54121;53.508;49.422;2022-10-22T02:00:07;10.60;39.10
67194;DHT22;54121;53.508;49.422;2022-10-22T02:03:22;10.70;38.80
67194;DHT22;54121;53.508;49.422;2022-10-22T02:05:43;10.90;38.50
67194;DHT22;54121;53.508;49.422;2022-10-22T02:08:15;10.70;38.50
67194;DHT22;54121;53.508;49.422;2022-10-22T02:10:45;10.60;39.00
67194;DHT22;54121;53.508;49.422;2022-10-22T02:13:20;10.70;38.60
67194;DHT22;54121;53.508;49.422;2022-10-22T02:15:50;10.60;38.70
67194;DHT22;54121;53.508;49.422;2022-10-22T02:18:23;10.60;38.70
67194;DHT22;54121;53.508;49.422;2022-10-22T02:20:51;10.70;38.70
67194;DHT22;54121;53.508;49.422;2022-10-22T02:23:19;10.80;38.30
67194;DHT22;54121;53.508;49.422;2022-10-22T02:25:50;10.60;38.50
67194;DHT22;54121;53.508;49.422;2022-10-22T02:28:39;10.50;38.70
67194;DHT22;54121;53.508;49.422;2022-10-22T02:31:18;10.70;38.40
67194;DHT22;54121;53.508;49.422;2022-10-22T02:33:49;10.50;38.70
67194;DHT22;54121;53.508;49.422;2022-10-22T02:36:19;10.50;38.60
67194;DHT22;54121;53.508;49.422;2022-10-22T02:38:49;10.40;38.80
67194;DHT22;54121;53.508;49.422;2022-10-22T02:41:17;10.40;38.60
67194;DHT22;54121;53.508;49.422;2022-10-22T02:43:51;10.30;38.70
67194;DHT22;54121;53.508;49.422;2022-10-22T02:46:19;10.40;38.50
67194;DHT22;54121;53.508;49.422;2022-10-22T02:48:46;10.30;38.50
67194;DHT22;54121;53.508;49.422;2022-10-22T02:51:13;10.40;38.30
67194;DHT22;54121;53.508;49.422;2022-10-22T02:53:40;10.40;38.30
67194;DHT22;54121;53.508;49.422;2022-10-22T02:56:07;10.40;38.10
67194;DHT22;54121;53.508;49.422;2022-10-22T02:58:34;10.20;38.70
67194;DHT22;54121;53.508;49.422;2022-10-22T03:01:01;10.20;39.80
67194;DHT22;54121;53.508;49.422;2022-10-22T03:03:28;10.50;38.20
67194;DHT22;54121;53.508;49.422;2022-10-22T03:05:55;10.40;38.20
67194;DHT22;54121;53.508;49.422;2022-10-22T03:08:22;10.20;38.30
67194;DHT22;54121;53.508;49.422;2022-10-22T03:10:49;10.50;37.90
67194;DHT22;54121;53.508;49.422;2022-10-22T03:13:16;10.40;37.80
67194;DHT22;54121;53.508;49.422;2022-10-22T03:15:43;10.40;37.60
67194;DHT22;54121;53.508;49.422;2022-10-22T03:18:09;10.40;37.80
67194;DHT22;54121;53.508;49.422;2022-10-22T03:20:36;10.30;38.00
67194;DHT22;54121;53.508;49.422;2022-10-22T03:23:03;10.20;38.20
67194;DHT22;54121;53.508;49.422;2022-10-22T03:25:30;10.10;38.20
67194;DHT22;54121;53.508;49.422;2022-10-22T03:28:02;10.20;38.10
67194;DHT22;54121;53.508;49.422;2022-10-22T03:30:30;10.30;37.80
67194;DHT22;54121;53.508;49.422;2022-10-22T03:32:58;10.10;38.30
67194;DHT22;54121;53.508;49.422;2022-10-22T03:35:25;10.30;37.70
67194;DHT22;54121;53.508;49.422;2022-10-22T03:37:52;10.20;39.00
67194;DHT22;54121;53.508;49.422;2022-10-22T03:40:19;10.40;37.50
67194;DHT22;54121;53.508;49.422;2022-10-22T03:42:46;10.10;38.00
67194;DHT22;54121;53.508;49.422;2022-10-22T03:45:13;10.00;38.10
67194;DHT22;54121;53.508;49.422;2022-10-22T03:47:40;10.20;37.70
67194;DHT22;54121;53.508;49.422;2022-10-22T03:50:08;10.30;37.50
67194;DHT22;54121;53.508;49.422;2022-10-22T03:52:37;10.20;37.60
67194;DHT22;54121;53.508;49.422;2022-10-22T03:55:05;10.30;37.50
67194;DHT22;54121;53.508;49.422;2022-10-22T03:57:32;10.30;37.20
67194;DHT22;54121;53.508;49.422;2022-10-22T03:59:59;10.30;37.30
67194;DHT22;54121;53.508;49.422;2022-10-22T04:02:26;10.40;37.00
67194;DHT22;54121;53.508;49.422;2022-10-22T04:04:53;10.30;37.20
67194;DHT22;54121;53.508;49.422;2022-10-22T04:07:20;10.30;37.10
67194;DHT22;54121;53.508;49.422;2022-10-22T04:09:47;10.30;37.10
67194;DHT22;54121;53.508;49.422;2022-10-22T04:12:14;10.30;37.10
67194;DHT22;54121;53.508;49.422;2022-10-22T04:14:41;10.30;37.30
67194;DHT22;54121;53.508;49.422;2022-10-22T04:17:08;10.40;36.90
67194;DHT22;54121;53.508;49.422;2022-10-22T04:19:35;10.50;36.90
67194;DHT22;54121;53.508;49.422;2022-10-22T04:22:02;11.10;36.10
67194;DHT22;54121;53.508;49.422;2022-10-22T04:24:30;11.30;35.50
67194;DHT22;54121;53.508;49.422;2022-10-22T04:26:57;11.70;35.00
67194;DHT22;54121;53.508;49.422;2022-10-22T04:29:24;12.20;34.00
67194;DHT22;54121;53.508;49.422;2022-10-22T04:31:52;12.50;33.20
67194;DHT22;54121;53.508;49.422;2022-10-22T04:34:19;12.70;32.20
67194;DHT22;54121;53.508;49.422;2022-10-22T04:36:46;12.60;32.30
67194;DHT22;54121;53.508;49.422;2022-10-22T04:39:14;12.80;32.20
67194;DHT22;54121;53.508;49.422;2022-10-22T04:41:40;12.70;31.70
67194;DHT22;54121;53.508;49.422;2022-10-22T04:44:08;12.80;31.50
67194;DHT22;54121;53.508;49.422;2022-10-22T04:46:34;13.00;31.30
67194;DHT22;54121;53.508;49.422;2022-10-22T04:49:02;13.40;30.50
67194;DHT22;54121;53.508;49.422;2022-10-22T04:51:30;13.60;29.90
67194;DHT22;54121;53.508;49.422;2022-10-22T04:53:57;14.30;29.30
67194;DHT22;54121;53.508;49.422;2022-10-22T04:56:27;14.70;28.10
67194;DHT22;54121;53.508;49.422;2022-10-22T04:58:59;15.50;27.30
67194;DHT22;54121;53.508;49.422;2022-10-22T05:01:32;15.80;26.50
67194;DHT22;54121;53.508;49.422;2022-10-22T05:04:00;16.10;25.70
67194;DHT22;54121;53.508;49.422;2022-10-22T05:06:32;16.40;25.40
67194;DHT22;54121;53.508;49.422;2022-10-22T05:09:05;16.90;24.70
67194;DHT22;54121;53.508;49.422;2022-10-22T05:11:39;17.20;24.00
67194;DHT22;54121;53.508;49.422;2022-10-22T05:14:12;17.40;23.60
67194;DHT22;54121;53.508;49.422;2022-10-22T05:16:39;17.60;22.90
67194;DHT22;54121;53.508;49.422;2022-10-22T05:19:06;17.80;22.60
67194;DHT22;54121;53.508;49.422;2022-10-22T05:21:34;18.10;22.50
67194;DHT22;54121;53.508;49.422;2022-10-22T05:24:01;18.70;21.60
67194;DHT22;54121;53.508;49.422;2022-10-22T05:26:28;19.00;21.40
67194;DHT22;54121;53.508;49.422;2022-10-22T05:28:55;19.20;20.80
67194;DHT22;54121;53.508;49.422;2022-10-22T05:31:22;18.90;20.90
67194;DHT22;54121;53.508;49.422;2022-10-22T05:33:49;18.60;21.40
67194;DHT22;54121;53.508;49.422;2022-10-22T05:36:21;18.90;21.40
67194;DHT22;54121;53.508;49.422;2022-10-22T05:38:48;19.70;20.20
67194;DHT22;54121;53.508;49.422;2022-10-22T05:41:20;19.40;20.50
67194;DHT22;54121;53.508;49.422;2022-10-22T05:43:48;19.30;20.50
67194;DHT22;54121;53.508;49.422;2022-10-22T05:46:18;19.70;20.40
67194;DHT22;54121;53.508;49.422;2022-10-22T05:48:53;19.50;20.30
67194;DHT22;54121;53.508;49.422;2022-10-22T05:51:22;19.60;20.40
67194;DHT22;54121;53.508;49.422;2022-10-22T05:53:57;19.80;19.90
67194;DHT22;54121;53.508;49.422;2022-10-22T05:56:25;20.50;18.70
67194;DHT22;54121;53.508;49.422;2022-10-22T05:58:53;20.10;19.10
67194;DHT22;54121;53.508;49.422;2022-10-22T06:01:22;20.20;19.10
67194;DHT22;54121;53.508;49.422;2022-10-22T06:03:52;20.60;18.60
67194;DHT22;54121;53.508;49.422;2022-10-22T06:08:48;20.10;19.20
67194;DHT22;54121;53.508;49.422;2022-10-22T06:11:16;20.50;18.80
67194;DHT22;54121;53.508;49.422;2022-10-22T06:13:44;20.40;18.90
67194;DHT22;54121;53.508;49.422;2022-10-22T06:16:12;20.50;18.50
67194;DHT22;54121;53.508;49.422;2022-10-22T06:18:39;20.70;18.50
67194;DHT22;54121;53.508;49.422;2022-10-22T06:21:08;20.90;18.30
67194;DHT22;54121;53.508;49.422;2022-10-22T06:23:37;20.90;17.60
67194;DHT22;54121;53.508;49.422;2022-10-22T06:26:04;20.80;18.20
67194;DHT22;54121;53.508;49.422;2022-10-22T06:28:33;20.50;18.70
67194;DHT22;54121;53.508;49.422;2022-10-22T06:31:02;20.60;18.40
67194;DHT22;54121;53.508;49.422;2022-10-22T06:33:31;20.70;18.30
67194;DHT22;54121;53.508;49.422;2022-10-22T06:36:10;20.60;18.00
67194;DHT22;54121;53.508;49.422;2022-10-22T06:38:38;20.30;18.50
67194;DHT22;54121;53.508;49.422;2022-10-22T06:41:08;20.50;18.00
67194;DHT22;54121;53.508;49.422;2022-10-22T06:43:35;20.80;17.90
67194;DHT22;54121;53.508;49.422;2022-10-22T06:46:05;21.00;17.10
67194;DHT22;54121;53.508;49.422;2022-10-22T06:48:33;21.20;17.10
67194;DHT22;54121;53.508;49.422;2022-10-22T06:51:03;21.20;16.60
67194;DHT22;54121;53.508;49.422;2022-10-22T06:53:30;20.70;17.00
67194;DHT22;54121;53.508;49.422;2022-10-22T06:55:57;20.70;17.10
67194;DHT22;54121;53.508;49.422;2022-10-22T06:58:24;20.60;17.30
67194;DHT22;54121;53.508;49.422;2022-10-22T07:01:04;20.50;17.70
67194;DHT22;54121;53.508;49.422;2022-10-22T07:03:31;21.30;17.00
67194;DHT22;54121;53.508;49.422;2022-10-22T07:06:06;21.80;16.00
67194;DHT22;54121;53.508;49.422;2022-10-22T07:08:34;21.90;15.80
67194;DHT22;54121;53.508;49.422;2022-10-22T07:11:06;20.90;16.50
67194;DHT22;54121;53.508;49.422;2022-10-22T07:13:33;21.30;16.50
67194;DHT22;54121;53.508;49.422;2022-10-22T07:16:01;21.00;16.50
67194;DHT22;54121;53.508;49.422;2022-10-22T07:18:29;21.40;15.90
67194;DHT22;54121;53.508;49.422;2022-10-22T07:20:55;20.80;16.60
67194;DHT22;54121;53.508;49.422;2022-10-22T07:23:23;20.90;16.90
67194;DHT22;54121;53.508;49.422;2022-10-22T07:25:49;21.10;16.20
67194;DHT22;54121;53.508;49.422;2022-10-22T07:28:16;20.70;16.90
67194;DHT22;54121;53.508;49.422;2022-10-22T07:30:43;21.00;16.20
67194;DHT22;54121;53.508;49.422;2022-10-22T07:33:10;21.30;16.10
67194;DHT22;54121;53.508;49.422;2022-10-22T07:35:38;21.30;16.70
67194;DHT22;54121;53.508;49.422;2022-10-22T07:38:06;21.40;16.10
67194;DHT22;54121;53.508;49.422;2022-10-22T07:40:34;21.40;16.30
67194;DHT22;54121;53.508;49.422;2022-10-22T07:43:01;20.90;16.50
67194;DHT22;54121;53.508;49.422;2022-10-22T07:45:28;21.30;16.30
67194;DHT22;54121;53.508;49.422;2022-10-22T07:47:55;20.90;16.70
67194;DHT22;54121;53.508;49.422;2022-10-22T07:50:21;20.30;17.10
67194;DHT22;54121;53.508;49.422;2022-10-22T07:52:48;20.40;17.50
67194;DHT22;54121;53.508;49.422;2022-10-22T07:55:15;21.10;16.90
67194;DHT22;54121;53.508;49.422;2022-10-22T07:57:42;21.50;17.00
67194;DHT22;54121;53.508;49.422;2022-10-22T08:00:09;20.70;16.40
67194;DHT22;54121;53.508;49.422;2022-10-22T08:02:37;20.50;17.50
67194;DHT22;54121;53.508;49.422;2022-10-22T08:05:04;20.50;17.90
67194;DHT22;54121;53.508;49.422;2022-10-22T08:07:31;20.40;17.70
67194;DHT22;54121;53.508;49.422;2022-10-22T08:09:58;21.50;17.10
67194;DHT22;54121;53.508;49.422;2022-10-22T08:12:24;21.50;15.90
67194;DHT22;54121;53.508;49.422;2022-10-22T08:14:51;21.20;16.50
67194;DHT22;54121;53.508;49.422;2022-10-22T08:17:18;21.00;16.90
67194;DHT22;54121;53.508;49.422;2022-10-22T08:19:44;21.50;16.30
67194;DHT22;54121;53.508;49.422;2022-10-22T08:22:11;21.50;15.90
67194;DHT22;54121;53.508;49.422;2022-10-22T08:24:38;21.70;15.70
67194;DHT22;54121;53.508;49.422;2022-10-22T08:27:05;21.60;15.10
67194;DHT22;54121;53.508;49.422;2022-10-22T08:29:31;22.00;14.20
67194;DHT22;54121;53.508;49.422;2022-10-22T08:31:58;21.60;15.20
67194;DHT22;54121;53.508;49.422;2022-10-22T08:34:25;22.20;14.40
67194;DHT22;54121;53.508;49.422;2022-10-22T08:36:51;22.30;14.30
67194;DHT22;54121;53.508;49.422;2022-10-22T08:39:18;22.50;13.90
67194;DHT22;54121;53.508;49.422;2022-10-22T08:50:16;22.40;14.30
67194;DHT22;54121;53.508;49.422;2022-10-22T08:52:45;22.30;14.40
67194;DHT22;54121;53.508;49.422;2022-10-22T08:55:15;23.20;13.60
67194;DHT22;54121;53.508;49.422;2022-10-22T08:57:50;22.70;14.00
67194;DHT22;54121;53.508;49.422;2022-10-22T09:00:28;23.30;13.10
67194;DHT22;54121;53.508;49.422;2022-10-22T09:08:12;23.30;12.90
67194;DHT22;54121;53.508;49.422;2022-10-22T09:10:45;22.90;14.80
67194;DHT22;54121;53.508;49.422;2022-10-22T09:13:17;23.80;12.80
67194;DHT22;54121;53.508;49.422;2022-10-22T09:15:50;23.50;13.40
67194;DHT22;54121;53.508;49.422;2022-10-22T09:18:23;23.50;13.50
67194;DHT22;54121;53.508;49.422;2022-10-22T09:21:05;23.30;13.10
67194;DHT22;54121;53.508;49.422;2022-10-22T09:26:17;23.50;13.00
67194;DHT22;54121;53.508;49.422;2022-10-22T09:28:49;23.70;12.50
67194;DHT22;54121;53.508;49.422;2022-10-22T09:31:16;23.80;12.50
67194;DHT22;54121;53.508;49.422;2022-10-22T09:33:45;23.40;12.60
67194;DHT22;54121;53.508;49.422;2022-10-22T09:36:19;24.30;12.10
67194;DHT22;54121;53.508;49.422;2022-10-22T09:38:52;24.70;11.90
67194;DHT22;54121;53.508;49.422;2022-10-22T09:41:23;24.60;11.60
67194;DHT22;54121;53.508;49.422;2022-10-22T09:43:51;23.80;12.40
67194;DHT22;54121;53.508;49.422;2022-10-22T09:46:23;25.20;11.60
67194;DHT22;54121;53.508;49.422;2022-10-22T09:49:01;23.80;12.30
67194;DHT22;54121;53.508;49.422;2022-10-22T09:51:41;24.90;11.50
67194;DHT22;54121;53.508;49.422;2022-10-22T09:54:21;24.60;11.00
67194;DHT22;54121;53.508;49.422;2022-10-22T09:56:55;24.60;10.90
67194;DHT22;54121;53.508;49.422;2022-10-22T09:59:31;24.50;11.50
67194;DHT22;54121;53.508;49.422;2022-10-22T10:04:47;24.80;11.60
67194;DHT22;54121;53.508;49.422;2022-10-22T10:07:20;24.60;11.10
67194;DHT22;54121;53.508;49.422;2022-10-22T10:09:48;25.50;11.30
67194;DHT22;54121;53.508;49.422;2022-10-22T10:20:51;25.40;10.50
67194;DHT22;54121;53.508;49.422;2022-10-22T10:23:26;25.40;10.00
67194;DHT22;54121;53.508;49.422;2022-10-22T10:26:49;26.10;9.50
67194;DHT22;54121;53.508;49.422;2022-10-22T10:29:09;25.90;9.90
67194;DHT22;54121;53.508;49.422;2022-10-22T10:31:44;25.50;10.90
67194;DHT22;54121;53.508;49.422;2022-10-22T10:34:26;26.10;10.50
67194;DHT22;54121;53.508;49.422;2022-10-22T10:40:00;26.10;10.10
67194;DHT22;54121;53.508;49.422;2022-10-22T10:50:52;26.90;10.40
67194;DHT22;54121;53.508;49.422;2022-10-22T10:58:49;26.20;10.20
67194;DHT22;54121;53.508;49.422;2022-10-22T11:07:03;25.60;11.00
67194;DHT22;54121;53.508;49.422;2022-10-22T11:09:38;26.20;11.40
67194;DHT22;54121;53.508;49.422;2022-10-22T11:12:23;26.10;11.10
67194;DHT22;54121;53.508;49.422;2022-10-22T11:15:06;25.60;11.90
67194;DHT22;54121;53.508;49.422;2022-10-22T11:17:44;25.90;11.90
67194;DHT22;54121;53.508;49.422;2022-10-22T11:20:40;26.10;11.90
67194;DHT22;54121;53.508;49.422;2022-10-22T11:23:16;26.50;11.20
67194;DHT22;54121;53.508;49.422;2022-10-22T11:25:45;26.20;11.70
67194;DHT22;54121;53.508;49.422;2022-10-22T11:28:26;25.60;11.60
67194;DHT22;54121;53.508;49.422;2022-10-22T11:31:04;26.10;11.20
67194;DHT22;54121;53.508;49.422;2022-10-22T11:34:05;27.60;9.70
67194;DHT22;54121;53.508;49.422;2022-10-22T11:36:37;29.70;8.70
67194;DHT22;54121;53.508;49.422;2022-10-22T11:39:05;27.60;9.80
67194;DHT22;54121;53.508;49.422;2022-10-22T11:41:34;26.30;11.20
67194;DHT22;54121;53.508;49.422;2022-10-22T11:51:41;26.40;11.20
67194;DHT22;54121;53.508;49.422;2022-10-22T11:57:19;27.20;11.00
67194;DHT22;54121;53.508;49.422;2022-10-22T11:59:47;26.10;11.40
67194;DHT22;54121;53.508;49.422;2022-10-22T12:05:16;25.10;12.80
67194;DHT22;54121;53.508;49.422;2022-10-22T12:07:54;25.50;11.80
67194;DHT22;54121;53.508;49.422;2022-10-22T12:10:27;26.40;10.90
67194;DHT22;54121;53.508;49.422;2022-10-22T12:13:00;26.20;10.90
67194;DHT22;54121;53.508;49.422;2022-10-22T12:15:28;26.50;11.20
67194;DHT22;54121;53.508;49.422;2022-10-22T12:18:01;26.30;10.70
67194;DHT22;54121;53.508;49.422;2022-10-22T12:20:29;26.20;10.50
67194;DHT22;54121;53.508;49.422;2022-10-22T12:22:58;25.60;11.00
67194;DHT22;54121;53.508;49.422;2022-10-22T12:25:29;25.80;11.10
67194;DHT22;54121;53.508;49.422;2022-10-22T12:27:58;26.00;10.60
67194;DHT22;54121;53.508;49.422;2022-10-22T12:30:30;25.30;11.00
67194;DHT22;54121;53.508;49.422;2022-10-22T12:33:02;25.50;11.30
67194;DHT22;54121;53.508;49.422;2022-10-22T12:35:33;24.90;11.10
67194;DHT22;54121;53.508;49.422;2022-10-22T12:38:04;24.50;11.60
67194;DHT22;54121;53.508;49.422;2022-10-22T12:40:34;24.30;11.90
67194;DHT22;54121;53.508;49.422;2022-10-22T12:43:10;24.50;11.80
67194;DHT22;54121;53.508;49.422;2022-10-22T12:45:37;24.50;11.80
67194;DHT22;54121;53.508;49.422;2022-10-22T12:48:13;24.20;12.20
67194;DHT22;54121;53.508;49.422;2022-10-22T12:50:45;23.90;12.50
67194;DHT22;54121;53.508;49.422;2022-10-22T12:53:31;23.70;12.40
67194;DHT22;54121;53.508;49.422;2022-10-22T12:56:06;23.90;12.40
67194;DHT22;54121;53.508;49.422;2022-10-22T12:58:55;24.30;12.30
67194;DHT22;54121;53.508;49.422;2022-10-22T13:01:28;24.40;11.60
67194;DHT22;54121;53.508;49.422;2022-10-22T13:04:31;23.70;12.30
67194;DHT22;54121;53.508;49.422;2022-10-22T13:09:46;22.10;13.90
67194;DHT22;54121;53.508;49.422;2022-10-22T13:12:13;22.60;13.70
67194;DHT22;54121;53.508;49.422;2022-10-22T13:14:44;22.20;13.50
67194;DHT22;54121;53.508;49.422;2022-10-22T13:17:37;22.40;13.40
67194;DHT22;54121;53.508;49.422;2022-10-22T13:20:20;21.60;14.20
67194;DHT22;54121;53.508;49.422;2022-10-22T13:22:58;21.20;14.60
67194;DHT22;54121;53.508;49.422;2022-10-22T13:25:29;21.20;14.30
67194;DHT22;54121;53.508;49.422;2022-10-22T13:28:01;20.50;15.20
67194;DHT22;54121;53.508;49.422;2022-10-22T13:30:32;19.90;15.80
67194;DHT22;54121;53.508;49.422;2022-10-22T13:35:31;19.20;16.30
67194;DHT22;54121;53.508;49.422;2022-10-22T13:37:59;18.50;16.90
67194;DHT22;54121;53.508;49.422;2022-10-22T13:40:26;18.10;17.60
67194;DHT22;54121;53.508;49.422;2022-10-22T13:42:53;17.80;18.10
67194;DHT22;54121;53.508;49.422;2022-10-22T13:45:20;18.10;17.90
67194;DHT22;54121;53.508;49.422;2022-10-22T13:47:50;18.00;17.70
67194;DHT22;54121;53.508;49.422;2022-10-22T13:50:19;18.20;17.70
67194;DHT22;54121;53.508;49.422;2022-10-22T13:52:54;18.20;18.10
67194;DHT22;54121;53.508;49.422;2022-10-22T13:55:27;18.40;17.80
67194;DHT22;54121;53.508;49.422;2022-10-22T13:58:11;18.20;18.10
67194;DHT22;54121;53.508;49.422;2022-10-22T14:00:40;17.90;18.40
67194;DHT22;54121;53.508;49.422;2022-10-22T14:03:11;18.10;18.50
67194;DHT22;54121;53.508;49.422;2022-10-22T14:05:39;18.30;18.40
67194;DHT22;54121;53.508;49.422;2022-10-22T14:08:11;17.70;19.20
67194;DHT22;54121;53.508;49.422;2022-10-22T14:10:38;17.70;19.30
67194;DHT22;54121;53.508;49.422;2022-10-22T14:13:06;17.60;19.60
67194;DHT22;54121;53.508;49.422;2022-10-22T14:15:34;17.50;19.80
67194;DHT22;54121;53.508;49.422;2022-10-22T14:18:01;17.40;20.00
67194;DHT22;54121;53.508;49.422;2022-10-22T14:20:31;17.20;20.50
67194;DHT22;54121;53.508;49.422;2022-10-22T14:23:15;17.10;20.70
67194;DHT22;54121;53.508;49.422;2022-10-22T14:25:42;17.70;20.10
67194;DHT22;54121;53.508;49.422;2022-10-22T14:28:12;17.40;20.40
67194;DHT22;54121;53.508;49.422;2022-10-22T14:30:39;17.70;20.30
67194;DHT22;54121;53.508;49.422;2022-10-22T14:33:22;17.00;20.90
67194;DHT22;54121;53.508;49.422;2022-10-22T14:35:50;17.00;21.50
67194;DHT22;54121;53.508;49.422;2022-10-22T14:38:17;16.60;22.60
67194;DHT22;54121;53.508;49.422;2022-10-22T14:40:44;16.90;21.70
67194;DHT22;54121;53.508;49.422;2022-10-22T14:43:25;16.50;21.90
67194;DHT22;54121;53.508;49.422;2022-10-22T14:45:53;16.50;22.20
67194;DHT22;54121;53.508;49.422;2022-10-22T14:48:24;16.50;22.00
67194;DHT22;54121;53.508;49.422;2022-10-22T14:50:51;16.40;21.80
67194;DHT22;54121;53.508;49.422;2022-10-22T14:53:17;15.90;22.80
67194;DHT22;54121;53.508;49.422;2022-10-22T14:55:44;16.10;22.60
67194;DHT22;54121;53.508;49.422;2022-10-22T14:58:12;15.90;22.80
67194;DHT22;54121;53.508;49.422;2022-10-22T15:00:40;15.60;23.10
67194;DHT22;54121;53.508;49.422;2022-10-22T15:03:08;16.10;23.00
67194;DHT22;54121;53.508;49.422;2022-10-22T15:05:35;16.20;22.40
67194;DHT22;54121;53.508;49.422;2022-10-22T15:08:07;16.10;22.50
67194;DHT22;54121;53.508;49.422;2022-10-22T15:10:34;16.30;22.40
67194;DHT22;54121;53.508;49.422;2022-10-22T15:13:01;17.10;21.20
67194;DHT22;54121;53.508;49.422;2022-10-22T15:15:28;16.60;21.70
67194;DHT22;54121;53.508;49.422;2022-10-22T15:17:55;16.20;22.20
67194;DHT22;54121;53.508;49.422;2022-10-22T15:20:21;15.80;22.80
67194;DHT22;54121;53.508;49.422;2022-10-22T15:22:48;15.10;23.60
67194;DHT22;54121;53.508;49.422;2022-10-22T15:25:15;14.90;24.00
67194;DHT22;54121;53.508;49.422;2022-10-22T15:27:42;15.00;24.00
67194;DHT22;54121;53.508;49.422;2022-10-22T15:30:09;15.10;24.80
67194;DHT22;54121;53.508;49.422;2022-10-22T15:32:36;15.30;23.20
67194;DHT22;54121;53.508;49.422;2022-10-22T15:35:03;15.50;23.30
67194;DHT22;54121;53.508;49.422;2022-10-22T15:37:31;14.90;23.90
67194;DHT22;54121;53.508;49.422;2022-10-22T15:39:58;14.40;24.60
67194;DHT22;54121;53.508;49.422;2022-10-22T15:42:26;14.20;24.90
67194;DHT22;54121;53.508;49.422;2022-10-22T15:45:01;14.00;25.00
67194;DHT22;54121;53.508;49.422;2022-10-22T15:47:29;14.20;24.80
67194;DHT22;54121;53.508;49.422;2022-10-22T15:49:56;14.10;25.00
67194;DHT22;54121;53.508;49.422;2022-10-22T15:52:23;14.10;24.80
67194;DHT22;54121;53.508;49.422;2022-10-22T15:54:50;14.30;24.80
67194;DHT22;54121;53.508;49.422;2022-10-22T15:57:18;14.40;24.70
67194;DHT22;54121;53.508;49.422;2022-10-22T15:59:45;14.20;25.10
67194;DHT22;54121;53.508;49.422;2022-10-22T16:02:12;15.20;24.00
67194;DHT22;54121;53.508;49.422;2022-10-22T16:04:40;15.50;23.20
67194;DHT22;54121;53.508;49.422;2022-10-22T16:07:07;15.30;23.80
67194;DHT22;54121;53.508;49.422;2022-10-22T16:09:34;14.30;24.80
67194;DHT22;54121;53.508;49.422;2022-10-22T16:12:01;13.80;25.10
67194;DHT22;54121;53.508;49.422;2022-10-22T16:14:28;14.10;24.40
67194;DHT22;54121;53.508;49.422;2022-10-22T16:16:55;13.60;25.30
67194;DHT22;54121;53.508;49.422;2022-10-22T16:19:23;13.70;25.60
67194;DHT22;54121;53.508;49.422;2022-10-22T16:21:52;13.80;25.40
67194;DHT22;54121;53.508;49.422;2022-10-22T16:24:20;13.60;25.20
67194;DHT22;54121;53.508;49.422;2022-10-22T16:26:47;13.80;25.20
67194;DHT22;54121;53.508;49.422;2022-10-22T16:29:14;13.80;25.10
67194;DHT22;54121;53.508;49.422;2022-10-22T16:31:41;13.60;25.30
67194;DHT22;54121;53.508;49.422;2022-10-22T16:34:10;13.50;25.20
67194;DHT22;54121;53.508;49.422;2022-10-22T16:36:37;13.40;25.40
67194;DHT22;54121;53.508;49.422;2022-10-22T16:39:05;13.60;25.00
67194;DHT22;54121;53.508;49.422;2022-10-22T16:41:33;13.50;25.20
67194;DHT22;54121;53.508;49.422;2022-10-22T16:44:03;13.50;25.40
67194;DHT22;54121;53.508;49.422;2022-10-22T16:46:31;13.40;25.50
67194;DHT22;54121;53.508;49.422;2022-10-22T16:48:58;13.50;25.50
67194;DHT22;54121;53.508;49.422;2022-10-22T16:51:27;13.40;26.00
67194;DHT22;54121;53.508;49.422;2022-10-22T16:53:55;13.20;25.80
67194;DHT22;54121;53.508;49.422;2022-10-22T16:56:23;13.30;26.10
67194;DHT22;54121;53.508;49.422;2022-10-22T16:58:55;13.40;25.80
67194;DHT22;54121;53.508;49.422;2022-10-22T17:01:24;13.50;25.80
67194;DHT22;54121;53.508;49.422;2022-10-22T17:03:52;13.40;26.00